Allen Park, MI (48101)

10:19 PM EST on January 25, 2015 (GMT -0500)
Detroit Ave. & Fort Park | Change Station
CLOSE
Current Station
Personal Weather Station
Location: Lincoln Park, MI
Elevation: 587 ft
Nearby Weather Stations

Elev 587 ft 42.24 °N, 83.18 °W | Updated 9 minutes ago

Overcast
Overcast
18.1 °F
Feels Like 7 °F
N
8.9
Wind Variable Wind from NE

Today
High -- | Low -- °F
--% Chance of Precip.
Yesterday
High -- | Low -- °F
Precip. -- in
7:52 AM 5:37 PM
Waxing Crescent, 38% visible
Pressure 30.01 in
Visibility 10.0 miles
Clouds Overcast 12000 ft
Windchill 7 °F
Dew Point 8 °F
Humidity 65%
Rainfall 0.11 in
Snow Depth Not available.
UV 0 out of 12
Pollen .10 out of 12
Air Quality Not available.
Flu Activity Not available.
METAR KDTW 260253Z 04008G17KT 10SM OVC120 M08/M15 A2998 RMK AO2 SLP160 T10781150 50006

More Conditions Fewer Conditions

Pressure 30.01 in
Visibility 10.0 miles
Clouds Overcast 12000 ft
Windchill 7 °F
Dew Point 8 °F
Humidity 65%
Rainfall 0.11 in
Snow Depth Not available.
UV 0 out of 12
Pollen .10 out of 12
Air Quality Not available.
Flu Activity Not available.
METAR KDTW 260253Z 04008G17KT 10SM OVC120 M08/M15 A2998 RMK AO2 SLP160 T10781150 50006

More Conditions Fewer Conditions

10-Day Weather Forecast

Almanac

Astronomy

Jan. 25, 2015 Rise Set
Actual Time
Civil Twilight
Nautical Twilight
Astronomical Twilight
Moon
Length of Visible Light
Length of Day
Tomorrow will be .
, % of the Moon is Illuminated

Today's Extremes

State Highs State Lows

Community

WunderPhotos

Upload Photos

1,790,087 photos uploaded!

WunderBlogs® & News

Nearby

Air Quality

  Air Quality AQ Index Pollutant
Not available.

Snow Depth

Station Depth Elevation

Earthquake Activity

City Distance Mag. Time & Date
Minimum magnitude displayed is 2.5.

Coastal Water Temperatures

Place Temperature

Nearby Weather Stations